createdAt,value
2022-09-18T00:01:33.139Z,100634.34
2022-09-18T00:04:03.839Z,100638.25
2022-09-18T00:06:35.724Z,100647.66
2022-09-18T00:09:06.633Z,100641.19
2022-09-18T00:11:43.794Z,100642.47
2022-09-18T00:14:16.070Z,100646.50
2022-09-18T00:16:43.461Z,100642.66
2022-09-18T00:19:11.267Z,100641.59
2022-09-18T00:21:42.483Z,100649.81
2022-09-18T00:24:09.577Z,100639.19
2022-09-18T00:26:36.448Z,100649.16
2022-09-18T00:29:04.279Z,100650.00
2022-09-18T00:31:35.086Z,100652.34
2022-09-18T00:34:08.520Z,100650.19
2022-09-18T00:36:38.046Z,100650.06
2022-09-18T00:39:06.226Z,100645.66
2022-09-18T00:41:38.597Z,100646.50
2022-09-18T00:44:42.254Z,100642.34
2022-09-18T00:47:18.284Z,100642.00
2022-09-18T00:49:49.400Z,100641.13
2022-09-18T00:52:18.871Z,100638.13
2022-09-18T00:54:50.753Z,100631.81
2022-09-18T00:57:24.485Z,100631.53
2022-09-18T00:59:52.801Z,100636.19
2022-09-18T01:02:20.176Z,100631.41
2022-09-18T01:04:48.374Z,100632.25
2022-09-18T01:07:46.852Z,100626.41
2022-09-18T01:10:31.946Z,100637.19
2022-09-18T01:13:22.978Z,100632.41
2022-09-18T01:15:57.617Z,100633.97
2022-09-18T01:18:51.401Z,100633.84
2022-09-18T01:21:38.762Z,100636.59
2022-09-18T01:24:23.593Z,100631.63
2022-09-18T01:26:50.271Z,100629.09
2022-09-18T01:29:29.013Z,100642.72
2022-09-18T01:32:16.370Z,100642.75
2022-09-18T01:35:14.233Z,100638.78
2022-09-18T01:38:04.202Z,100644.44
2022-09-18T01:40:42.299Z,100638.97
2022-09-18T01:43:14.863Z,100641.88
2022-09-18T01:45:47.703Z,100642.91
2022-09-18T01:48:28.466Z,100640.41
2022-09-18T01:51:04.943Z,100636.25
2022-09-18T01:53:38.066Z,100633.44
2022-09-18T01:56:37.835Z,100633.16
2022-09-18T01:59:12.331Z,100635.13
2022-09-18T02:01:43.690Z,100621.00
2022-09-18T02:04:22.320Z,100633.41
2022-09-18T02:07:01.964Z,100637.75
2022-09-18T02:09:29.683Z,100633.03
2022-09-18T02:11:59.411Z,100627.63
2022-09-18T02:14:35.651Z,100618.00
2022-09-18T02:17:28.304Z,100625.72
2022-09-18T02:20:01.809Z,100624.69
2022-09-18T02:22:32.432Z,100623.38
2022-09-18T02:25:07.479Z,100622.16
2022-09-18T02:27:38.798Z,100618.69
2022-09-18T02:30:08.310Z,100610.75
2022-09-18T02:32:40.147Z,100611.47
2022-09-18T02:35:09.808Z,100617.69
2022-09-18T02:37:57.834Z,100613.69
2022-09-18T02:41:01.797Z,100614.97
2022-09-18T02:43:46.612Z,100607.06
2022-09-18T02:46:36.874Z,100615.06
2022-09-18T02:49:09.952Z,100612.50
2022-09-18T02:51:46.675Z,100619.41
2022-09-18T02:54:42.256Z,100616.66
2022-09-18T02:57:18.910Z,100618.56
2022-09-18T02:59:54.413Z,100620.22
2022-09-18T03:02:22.911Z,100618.44
2022-09-18T03:04:50.336Z,100624.38
2022-09-18T03:07:18.222Z,100629.25
2022-09-18T03:09:45.126Z,100630.78
2022-09-18T03:12:12.861Z,100627.19
2022-09-18T03:14:39.738Z,100625.28
2022-09-18T03:17:07.122Z,100623.06
2022-09-18T03:19:33.942Z,100617.22
2022-09-18T03:22:01.244Z,100618.94
2022-09-18T03:24:28.160Z,100612.63
2022-09-18T03:26:55.138Z,100614.53
2022-09-18T03:29:21.956Z,100608.78
2022-09-18T03:31:48.898Z,100606.22
2022-09-18T03:34:15.753Z,100597.97
2022-09-18T03:36:42.578Z,100604.38
2022-09-18T03:39:09.408Z,100605.72
2022-09-18T03:41:36.242Z,100611.06
2022-09-18T03:44:03.089Z,100606.94
2022-09-18T03:46:29.949Z,100612.44
2022-09-18T03:48:56.978Z,100613.50
2022-09-18T03:51:23.779Z,100614.81
2022-09-18T03:53:53.417Z,100618.44
2022-09-18T03:56:20.224Z,100622.78
2022-09-18T03:58:47.046Z,100618.38
2022-09-18T04:01:13.923Z,100623.09
2022-09-18T04:03:40.996Z,100615.75
2022-09-18T04:06:08.198Z,100614.53
2022-09-18T04:08:36.088Z,100623.94
2022-09-18T04:11:04.569Z,100618.38
2022-09-18T04:13:33.121Z,100613.00
2022-09-18T04:16:00.319Z,100618.94
2022-09-18T04:18:27.158Z,100621.25
2022-09-18T04:20:53.966Z,100634.41
2022-09-18T04:23:20.860Z,100619.78
2022-09-18T04:25:47.926Z,100623.63
2022-09-18T04:28:14.688Z,100620.47
2022-09-18T04:30:41.496Z,100625.59
2022-09-18T04:33:08.401Z,100616.91
2022-09-18T04:35:35.312Z,100619.97
2022-09-18T04:38:02.235Z,100628.63
2022-09-18T04:40:29.121Z,100625.34
2022-09-18T04:42:56.009Z,100627.41
2022-09-18T04:45:23.039Z,100624.97
2022-09-18T04:47:50.184Z,100615.25
2022-09-18T04:50:17.162Z,100620.75
2022-09-18T04:52:44.422Z,100623.69
2022-09-18T04:55:11.321Z,100630.03
2022-09-18T04:57:38.127Z,100622.53
2022-09-18T05:00:06.763Z,100619.53
2022-09-18T05:02:33.631Z,100618.69
2022-09-18T05:05:00.443Z,100627.25
2022-09-18T05:07:27.650Z,100623.97
2022-09-18T05:09:54.515Z,100628.47
2022-09-18T05:12:21.550Z,100636.16
2022-09-18T05:14:48.356Z,100635.06
2022-09-18T05:17:15.518Z,100644.84
2022-09-18T05:19:42.342Z,100637.94
2022-09-18T05:22:09.247Z,100641.84
2022-09-18T05:24:36.070Z,100642.34
2022-09-18T05:27:03.888Z,100644.47
2022-09-18T05:29:30.741Z,100644.94
2022-09-18T05:31:57.616Z,100645.41
2022-09-18T05:34:24.441Z,100639.97
2022-09-18T05:36:51.232Z,100650.47
2022-09-18T05:39:18.070Z,100640.22
2022-09-18T05:41:49.698Z,100634.97
2022-09-18T05:44:17.221Z,100632.63
2022-09-18T05:46:44.211Z,100646.63
2022-09-18T05:49:11.036Z,100652.72
2022-09-18T05:51:39.022Z,100654.94
2022-09-18T05:54:06.427Z,100642.09
2022-09-18T05:56:33.207Z,100642.22
2022-09-18T05:59:00.003Z,100649.25
2022-09-18T06:01:26.834Z,100648.88
2022-09-18T06:03:53.699Z,100662.47
2022-09-18T06:06:20.500Z,100663.84
2022-09-18T06:08:47.345Z,100661.84
2022-09-18T06:11:14.396Z,100649.94
2022-09-18T06:13:41.233Z,100655.91
2022-09-18T06:16:08.152Z,100661.69
2022-09-18T06:18:35.022Z,100669.56
2022-09-18T06:21:01.849Z,100661.91
2022-09-18T06:23:29.582Z,100661.91
2022-09-18T06:26:00.926Z,100663.56
2022-09-18T06:28:28.518Z,100661.56
2022-09-18T06:30:55.326Z,100662.91
2022-09-18T06:33:22.107Z,100663.28
2022-09-18T06:35:49.195Z,100665.31
2022-09-18T06:38:16.693Z,100651.81
2022-09-18T06:40:54.608Z,100652.97
2022-09-18T06:43:21.943Z,100663.72
2022-09-18T06:45:53.697Z,100662.63
2022-09-18T06:48:20.802Z,100663.03
2022-09-18T06:50:55.079Z,100662.09
2022-09-18T06:53:22.628Z,100668.59
2022-09-18T06:55:50.690Z,100665.41
2022-09-18T06:58:19.669Z,100665.94
2022-09-18T07:00:47.036Z,100673.94
2022-09-18T07:03:13.999Z,100671.72
2022-09-18T07:05:42.813Z,100667.28
2022-09-18T07:08:10.291Z,100669.09
2022-09-18T07:10:37.852Z,100666.75
2022-09-18T07:13:04.838Z,100667.94
2022-09-18T07:15:32.239Z,100667.94
2022-09-18T07:18:01.827Z,100671.72
2022-09-18T07:20:29.645Z,100680.06
2022-09-18T07:23:01.756Z,100674.56
2022-09-18T07:25:31.455Z,100673.28
2022-09-18T07:28:07.865Z,100678.81
2022-09-18T07:30:37.102Z,100683.09
2022-09-18T07:33:06.092Z,100676.34
2022-09-18T07:35:33.487Z,100684.22
2022-09-18T07:38:01.574Z,100685.06
2022-09-18T07:40:29.481Z,100680.78
2022-09-18T07:43:08.787Z,100681.03
2022-09-18T07:45:36.271Z,100681.00
2022-09-18T07:48:05.959Z,100676.94
2022-09-18T07:50:33.892Z,100678.25
2022-09-18T07:53:03.529Z,100682.31
2022-09-18T07:55:30.497Z,100675.69
2022-09-18T07:58:00.476Z,100672.66
2022-09-18T08:00:31.503Z,100674.22
2022-09-18T08:03:11.748Z,100677.31
2022-09-18T08:05:40.805Z,100684.06
2022-09-18T08:08:12.930Z,100686.06
2022-09-18T08:10:41.933Z,100685.28
2022-09-18T08:13:09.299Z,100681.56
2022-09-18T08:15:40.436Z,100688.44
2022-09-18T08:18:09.398Z,100686.94
2022-09-18T08:20:36.519Z,100690.44
2022-09-18T08:23:06.138Z,100699.63
2022-09-18T08:25:33.890Z,100694.31
2022-09-18T08:28:02.339Z,100697.44
2022-09-18T08:30:30.217Z,100688.06
2022-09-18T08:33:06.451Z,100687.19
2022-09-18T08:35:33.888Z,100692.25
2022-09-18T08:38:01.109Z,100673.22
2022-09-18T08:41:02.931Z,100686.44
2022-09-18T08:44:00.192Z,100690.94
2022-09-18T08:46:43.574Z,100688.78
2022-09-18T08:49:29.564Z,100690.28
2022-09-18T08:52:08.816Z,100674.28
2022-09-18T08:54:41.340Z,100683.25
2022-09-18T08:57:19.408Z,100680.97
2022-09-18T09:00:09.042Z,100679.22
2022-09-18T09:02:41.316Z,100684.72
2022-09-18T09:05:22.040Z,100690.38
2022-09-18T09:08:16.721Z,100682.34
2022-09-18T09:11:21.712Z,100695.88
2022-09-18T09:14:01.505Z,100686.97
2022-09-18T09:17:05.475Z,100692.25
2022-09-18T09:20:27.965Z,100691.94
2022-09-18T09:23:01.793Z,100700.00
2022-09-18T09:26:04.288Z,100697.09
2022-09-18T09:28:37.076Z,100697.63
2022-09-18T09:31:09.233Z,100691.44
2022-09-18T09:33:51.170Z,100681.34
2022-09-18T09:36:24.384Z,100696.81
2022-09-18T09:39:26.840Z,100692.03
2022-09-18T09:42:22.937Z,100684.81
2022-09-18T09:45:13.096Z,100677.06
2022-09-18T09:48:16.651Z,100684.50
2022-09-18T09:50:57.619Z,100685.13
2022-09-18T09:53:26.807Z,100679.28
2022-09-18T09:56:36.647Z,100674.69
2022-09-18T09:59:22.490Z,100682.88
2022-09-18T10:02:20.986Z,100671.47
2022-09-18T10:05:16.307Z,100670.66
2022-09-18T10:07:50.026Z,100669.72
2022-09-18T10:10:47.685Z,100659.25
2022-09-18T10:13:39.685Z,100666.47
2022-09-18T10:16:29.578Z,100673.13
2022-09-18T10:18:57.776Z,100672.38
2022-09-18T10:21:28.819Z,100672.94
2022-09-18T10:24:35.882Z,100666.25
2022-09-18T10:27:09.943Z,100677.19
2022-09-18T10:29:37.022Z,100662.28
2022-09-18T10:32:04.670Z,100673.88
2022-09-18T10:34:47.456Z,100659.50
2022-09-18T10:37:29.151Z,100671.25
2022-09-18T10:40:01.391Z,100658.63
2022-09-18T10:42:32.101Z,100656.63
2022-09-18T10:45:06.679Z,100653.13
2022-09-18T10:47:38.005Z,100652.19
2022-09-18T10:50:14.162Z,100648.94
2022-09-18T10:52:42.767Z,100646.53
2022-09-18T10:55:20.822Z,100649.56
2022-09-18T10:57:56.790Z,100639.81
2022-09-18T11:00:24.277Z,100638.03
2022-09-18T11:03:12.250Z,100643.31
2022-09-18T11:05:53.980Z,100645.75
2022-09-18T11:08:26.834Z,100648.56
2022-09-18T11:11:09.118Z,100634.63
2022-09-18T11:13:49.792Z,100641.91
2022-09-18T11:16:25.099Z,100640.78
2022-09-18T11:19:07.599Z,100631.91
2022-09-18T11:21:45.536Z,100632.06
2022-09-18T11:24:31.179Z,100630.56
2022-09-18T11:27:01.118Z,100624.50
2022-09-18T11:29:39.814Z,100624.66
2022-09-18T11:32:31.709Z,100614.22
2022-09-18T11:35:03.155Z,100627.66
2022-09-18T11:37:56.007Z,100620.16
2022-09-18T11:40:31.895Z,100612.72
2022-09-18T11:43:02.910Z,100616.13
2022-09-18T11:46:06.266Z,100605.06
2022-09-18T11:48:53.181Z,100597.44
2022-09-18T11:51:26.779Z,100605.91
2022-09-18T11:54:05.406Z,100605.91
2022-09-18T11:56:49.293Z,100610.72
2022-09-18T11:59:28.960Z,100604.31
2022-09-18T12:02:13.545Z,100597.97
2022-09-18T12:04:49.342Z,100605.38
2022-09-18T12:07:38.723Z,100591.81
2022-09-18T12:10:33.370Z,100595.06
2022-09-18T12:13:15.130Z,100602.28
2022-09-18T12:15:53.063Z,100596.69
2022-09-18T12:18:29.843Z,100577.72
2022-09-18T12:21:13.588Z,100587.59
2022-09-18T12:23:41.321Z,100589.09
2022-09-18T12:27:14.047Z,100584.28
2022-09-18T12:29:41.389Z,100586.78
2022-09-18T12:32:34.165Z,100571.88
2022-09-18T12:35:28.308Z,100569.91
2022-09-18T12:38:00.821Z,100584.69
2022-09-18T12:41:10.927Z,100583.34
2022-09-18T12:44:08.961Z,100576.72
2022-09-18T12:47:19.909Z,100583.06
2022-09-18T12:50:32.388Z,100575.72
2022-09-18T12:53:36.171Z,100572.53
2022-09-18T12:56:21.646Z,100565.13
2022-09-18T12:59:27.801Z,100562.16
2022-09-18T13:02:32.015Z,100569.72
2022-09-18T13:05:28.956Z,100559.94
2022-09-18T13:08:15.740Z,100548.28
2022-09-18T13:10:46.947Z,100549.66
2022-09-18T13:13:36.079Z,100561.44
2022-09-18T13:16:15.063Z,100548.56
2022-09-18T13:19:02.024Z,100543.53
2022-09-18T13:21:41.715Z,100547.63
2022-09-18T13:24:17.043Z,100552.19
2022-09-18T13:26:48.216Z,100539.34
2022-09-18T13:29:52.276Z,100544.09
2022-09-18T13:32:35.147Z,100539.34
2022-09-18T13:35:19.973Z,100539.31
2022-09-18T13:37:48.660Z,100533.41
2022-09-18T13:40:39.939Z,100539.34
2022-09-18T13:43:28.687Z,100534.06
2022-09-18T13:46:07.355Z,100535.47
2022-09-18T13:48:40.277Z,100534.38
2022-09-18T13:51:24.977Z,100528.72
2022-09-18T13:54:13.426Z,100526.47
2022-09-18T13:57:02.711Z,100534.00
2022-09-18T14:00:06.690Z,100523.03
2022-09-18T14:02:40.993Z,100523.97
2022-09-18T14:05:10.100Z,100528.31
2022-09-18T14:07:36.816Z,100527.34
2022-09-18T14:10:06.699Z,100527.13
2022-09-18T14:12:35.803Z,100516.78
2022-09-18T14:15:15.515Z,100512.47
2022-09-18T14:17:42.930Z,100516.25
2022-09-18T14:20:21.942Z,100511.81
2022-09-18T14:22:49.017Z,100516.81
2022-09-18T14:25:46.668Z,100506.94
2022-09-18T14:28:14.563Z,100507.59
2022-09-18T14:30:41.396Z,100503.72
2022-09-18T14:33:11.623Z,100504.47
2022-09-18T14:36:02.118Z,100498.56
2022-09-18T14:38:31.557Z,100497.94
2022-09-18T14:41:31.959Z,100495.38
2022-09-18T14:44:01.702Z,100496.88
2022-09-18T14:46:29.046Z,100496.41
2022-09-18T14:48:56.096Z,100499.09
2022-09-18T14:51:35.069Z,100502.34
2022-09-18T14:54:23.405Z,100490.63
2022-09-18T14:56:54.926Z,100493.81
2022-09-18T14:59:24.059Z,100478.16
2022-09-18T15:01:51.527Z,100485.78
2022-09-18T15:04:22.716Z,100475.69
2022-09-18T15:06:56.386Z,100479.34
2022-09-18T15:09:33.369Z,100476.44
2022-09-18T15:12:03.002Z,100474.94
2022-09-18T15:14:46.818Z,100474.63
2022-09-18T15:17:26.260Z,100469.00
2022-09-18T15:20:15.152Z,100469.78
2022-09-18T15:22:42.196Z,100467.16
2022-09-18T15:25:13.927Z,100452.69
2022-09-18T15:27:42.367Z,100453.50
2022-09-18T15:30:22.688Z,100463.84
2022-09-18T15:33:03.902Z,100461.38
2022-09-18T15:35:35.982Z,100455.78
2022-09-18T15:38:07.430Z,100455.63
2022-09-18T15:40:38.531Z,100452.97
2022-09-18T15:43:35.372Z,100454.44
2022-09-18T15:46:11.813Z,100452.63
2022-09-18T15:48:48.071Z,100449.63
2022-09-18T15:51:29.275Z,100442.63
2022-09-18T15:54:12.102Z,100447.09
2022-09-18T15:56:58.387Z,100445.84
2022-09-18T15:59:40.561Z,100448.13
2022-09-18T16:02:29.118Z,100453.78
2022-09-18T16:04:56.334Z,100447.22
2022-09-18T16:07:28.795Z,100453.66
2022-09-18T16:09:55.653Z,100450.19
2022-09-18T16:12:30.467Z,100449.09
2022-09-18T16:15:16.232Z,100445.53
2022-09-18T16:17:46.213Z,100447.38
2022-09-18T16:20:40.262Z,100446.91
2022-09-18T16:23:31.157Z,100446.75
2022-09-18T16:26:12.814Z,100448.50
2022-09-18T16:28:53.445Z,100438.72
2022-09-18T16:31:28.081Z,100447.00
2022-09-18T16:34:05.775Z,100438.13
2022-09-18T16:36:41.531Z,100438.44
2022-09-18T16:39:14.887Z,100430.06
2022-09-18T16:41:42.359Z,100425.50
2022-09-18T16:44:11.632Z,100427.75
2022-09-18T16:46:49.286Z,100430.84
2022-09-18T16:49:26.794Z,100426.69
2022-09-18T16:51:55.530Z,100427.41
2022-09-18T16:54:22.327Z,100426.13
2022-09-18T16:56:56.426Z,100424.53
2022-09-18T16:59:29.087Z,100428.66
2022-09-18T17:02:04.160Z,100430.69
2022-09-18T17:04:33.436Z,100422.63
2022-09-18T17:07:00.937Z,100421.44
2022-09-18T17:09:28.004Z,100417.09
2022-09-18T17:11:55.550Z,100419.31
2022-09-18T17:14:23.159Z,100423.91
2022-09-18T17:16:50.287Z,100424.59
2022-09-18T17:19:17.637Z,100433.75
2022-09-18T17:21:45.087Z,100426.38
2022-09-18T17:24:12.266Z,100423.91
2022-09-18T17:26:56.972Z,100429.34
2022-09-18T17:29:23.809Z,100424.34
2022-09-18T17:31:52.147Z,100431.81
2022-09-18T17:34:20.964Z,100425.19
2022-09-18T17:36:49.002Z,100427.94
2022-09-18T17:39:17.000Z,100422.09
2022-09-18T17:41:45.613Z,100423.09
2022-09-18T17:44:12.575Z,100425.47
2022-09-18T17:46:39.514Z,100417.34
2022-09-18T17:49:06.585Z,100418.22
2022-09-18T17:51:33.437Z,100416.78
2022-09-18T17:54:03.536Z,100409.41
2022-09-18T17:56:32.980Z,100408.56
2022-09-18T17:59:05.524Z,100400.97
2022-09-18T18:01:36.320Z,100409.94
2022-09-18T18:04:05.106Z,100415.16
2022-09-18T18:06:32.440Z,100411.47
2022-09-18T18:08:59.285Z,100412.88
2022-09-18T18:11:26.232Z,100411.47
2022-09-18T18:13:54.624Z,100415.38
2022-09-18T18:16:31.020Z,100422.28
2022-09-18T18:19:02.674Z,100418.13
2022-09-18T18:21:32.380Z,100412.19
2022-09-18T18:24:08.845Z,100415.75
2022-09-18T18:26:38.258Z,100432.13
2022-09-18T18:29:08.048Z,100418.13
2022-09-18T18:31:34.991Z,100429.09
2022-09-18T18:34:02.020Z,100428.06
2022-09-18T18:36:31.801Z,100419.19
2022-09-18T18:39:00.844Z,100426.38
2022-09-18T18:41:29.942Z,100436.09
2022-09-18T18:43:59.877Z,100431.13
2022-09-18T18:46:29.897Z,100436.78
2022-09-18T18:49:02.746Z,100426.69
2022-09-18T18:51:45.881Z,100441.91
2022-09-18T18:54:17.920Z,100427.25
2022-09-18T18:56:46.219Z,100431.00
2022-09-18T18:59:17.434Z,100431.72
2022-09-18T19:01:44.878Z,100428.53
2022-09-18T19:04:16.446Z,100434.34
2022-09-18T19:06:44.492Z,100432.97
2022-09-18T19:09:20.256Z,100435.03
2022-09-18T19:11:49.713Z,100431.91
2022-09-18T19:14:20.348Z,100430.94
2022-09-18T19:16:49.048Z,100435.34
2022-09-18T19:19:20.863Z,100430.97
2022-09-18T19:21:48.223Z,100426.53
2022-09-18T19:24:16.531Z,100433.56
2022-09-18T19:26:46.359Z,100434.66
2022-09-18T19:29:16.783Z,100437.56
2022-09-18T19:31:45.909Z,100432.72
2022-09-18T19:34:19.235Z,100429.13
2022-09-18T19:36:52.127Z,100428.56
2022-09-18T19:39:24.749Z,100431.78
2022-09-18T19:42:12.388Z,100437.28
2022-09-18T19:44:56.084Z,100435.75
2022-09-18T19:47:34.078Z,100430.66
2022-09-18T19:50:05.298Z,100439.22
2022-09-18T19:52:52.912Z,100445.94
2022-09-18T19:55:37.752Z,100440.00
2022-09-18T19:58:04.846Z,100442.91
2022-09-18T20:00:31.980Z,100449.25
2022-09-18T20:03:00.003Z,100451.78
2022-09-18T20:05:29.788Z,100455.38
2022-09-18T20:08:01.412Z,100458.13
2022-09-18T20:10:28.309Z,100457.44
2022-09-18T20:12:56.690Z,100467.25
2022-09-18T20:15:27.763Z,100476.66
2022-09-18T20:17:56.460Z,100480.00
2022-09-18T20:20:26.333Z,100480.72
2022-09-18T20:22:56.862Z,100487.28
2022-09-18T20:25:25.134Z,100494.22
2022-09-18T20:27:51.976Z,100491.97
2022-09-18T20:30:19.467Z,100492.28
2022-09-18T20:32:46.389Z,100494.91
2022-09-18T20:35:13.337Z,100492.84
2022-09-18T20:37:40.314Z,100492.72
2022-09-18T20:40:12.368Z,100493.44
2022-09-18T20:42:39.277Z,100496.88
2022-09-18T20:45:08.498Z,100502.16
2022-09-18T20:47:37.263Z,100516.34
2022-09-18T20:50:09.238Z,100538.91
2022-09-18T20:52:42.988Z,100562.53
2022-09-18T20:55:13.488Z,100564.91
2022-09-18T20:57:41.378Z,100577.19
2022-09-18T21:00:10.659Z,100565.94
2022-09-18T21:02:38.126Z,100578.31
2022-09-18T21:05:14.485Z,100575.09
2022-09-18T21:07:43.728Z,100577.22
2022-09-18T21:10:12.868Z,100591.16
2022-09-18T21:12:40.057Z,100591.88
2022-09-18T21:15:13.013Z,100606.03
2022-09-18T21:17:39.968Z,100613.16
2022-09-18T21:20:07.293Z,100606.88
2022-09-18T21:22:54.070Z,100613.19
2022-09-18T21:25:21.731Z,100614.25
2022-09-18T21:27:49.378Z,100614.13
2022-09-18T21:30:16.268Z,100599.84
2022-09-18T21:32:43.113Z,100604.72
2022-09-18T21:35:09.940Z,100598.56
2022-09-18T21:37:36.734Z,100588.34
2022-09-18T21:40:04.183Z,100598.22
2022-09-18T21:42:31.099Z,100589.28
2022-09-18T21:45:00.814Z,100580.84
2022-09-18T21:47:27.650Z,100590.25
2022-09-18T21:49:55.475Z,100585.94
2022-09-18T21:52:22.282Z,100601.97
2022-09-18T21:54:49.511Z,100599.22
2022-09-18T21:57:16.493Z,100607.22
2022-09-18T21:59:43.382Z,100609.91
2022-09-18T22:02:11.612Z,100612.09
2022-09-18T22:04:39.412Z,100613.72
2022-09-18T22:07:06.222Z,100614.44
2022-09-18T22:09:39.238Z,100619.09
2022-09-18T22:12:07.646Z,100630.03
2022-09-18T22:14:35.595Z,100617.81
2022-09-18T22:17:06.597Z,100627.53
2022-09-18T22:19:38.047Z,100628.84
2022-09-18T22:22:07.547Z,100628.00
2022-09-18T22:24:34.545Z,100637.31
2022-09-18T22:27:05.746Z,100640.41
2022-09-18T22:29:34.880Z,100641.59
2022-09-18T22:32:02.102Z,100633.38
2022-09-18T22:34:32.226Z,100632.97
2022-09-18T22:37:00.508Z,100636.22
2022-09-18T22:39:27.474Z,100634.38
2022-09-18T22:41:54.878Z,100633.53
2022-09-18T22:44:22.721Z,100631.94
2022-09-18T22:46:54.272Z,100637.09
2022-09-18T22:49:23.182Z,100633.97
2022-09-18T22:51:50.665Z,100634.94
2022-09-18T22:54:23.667Z,100629.56
2022-09-18T22:56:52.124Z,100625.63
2022-09-18T22:59:22.235Z,100628.13
2022-09-18T23:02:02.370Z,100627.06
2022-09-18T23:04:31.613Z,100631.06
2022-09-18T23:06:59.315Z,100641.84
2022-09-18T23:09:27.284Z,100640.78
2022-09-18T23:11:54.699Z,100635.19
2022-09-18T23:14:26.061Z,100634.81
2022-09-18T23:16:53.454Z,100630.63
2022-09-18T23:19:23.704Z,100629.91
2022-09-18T23:21:50.937Z,100628.22
2022-09-18T23:24:18.253Z,100624.09
2022-09-18T23:26:48.467Z,100624.44
2022-09-18T23:29:20.737Z,100630.25
2022-09-18T23:31:53.300Z,100636.25
2022-09-18T23:34:27.733Z,100639.84
2022-09-18T23:36:56.141Z,100638.28
2022-09-18T23:39:29.265Z,100639.41
2022-09-18T23:41:58.766Z,100628.94
2022-09-18T23:44:28.576Z,100629.03
2022-09-18T23:46:55.461Z,100645.50
2022-09-18T23:49:23.770Z,100642.78
2022-09-18T23:51:53.882Z,100645.25
2022-09-18T23:54:23.443Z,100647.19
2022-09-18T23:56:50.772Z,100650.63
2022-09-18T23:59:22.654Z,100649.22
